createdAt,value
2024-05-09T00:00:45.297Z,8.88
2024-05-09T00:03:33.086Z,12.40
2024-05-09T00:06:01.311Z,10.68
2024-05-09T00:08:29.198Z,9.95
2024-05-09T00:10:57.550Z,8.05
2024-05-09T00:13:25.197Z,6.82
2024-05-09T00:15:53.193Z,9.35
2024-05-09T00:18:21.002Z,8.80
2024-05-09T00:20:49.162Z,7.20
2024-05-09T00:23:16.794Z,6.97
2024-05-09T00:25:45.482Z,5.60
2024-05-09T00:28:13.468Z,6.60
2024-05-09T00:30:41.668Z,5.88
2024-05-09T00:33:10.743Z,9.38
2024-05-09T00:35:41.543Z,5.35
2024-05-09T00:38:09.411Z,6.60
2024-05-09T00:40:43.274Z,4.68
2024-05-09T00:43:13.127Z,5.82
2024-05-09T00:45:42.205Z,8.02
2024-05-09T00:48:12.565Z,4.78
2024-05-09T00:50:42.935Z,6.05
2024-05-09T00:53:15.218Z,4.75
2024-05-09T00:55:44.148Z,7.38
2024-05-09T00:58:12.790Z,6.00
2024-05-09T01:00:41.840Z,5.50
2024-05-09T01:03:13.997Z,8.38
2024-05-09T01:05:43.622Z,6.97
2024-05-09T01:08:11.956Z,8.75
2024-05-09T01:10:43.759Z,4.40
2024-05-09T01:13:12.819Z,4.78
2024-05-09T01:15:41.024Z,3.95
2024-05-09T01:18:11.044Z,3.47
2024-05-09T01:20:43.219Z,3.97
2024-05-09T01:23:15.120Z,5.50
2024-05-09T01:25:45.612Z,5.38
2024-05-09T01:28:14.165Z,5.35
2024-05-09T01:30:42.221Z,5.00
2024-05-09T01:33:11.610Z,5.30
2024-05-09T01:35:42.210Z,4.45
2024-05-09T01:38:13.847Z,7.43
2024-05-09T01:40:42.594Z,6.72
2024-05-09T01:43:11.669Z,9.27
2024-05-09T01:45:41.456Z,7.68
2024-05-09T01:48:10.561Z,8.23
2024-05-09T01:50:42.095Z,8.23
2024-05-09T01:53:12.059Z,8.23
2024-05-09T01:55:40.452Z,6.97
2024-05-09T01:58:08.949Z,4.60
2024-05-09T02:00:40.846Z,8.77
2024-05-09T02:05:40.041Z,6.45
2024-05-09T02:08:08.003Z,4.63
2024-05-09T02:10:36.000Z,6.07
2024-05-09T02:13:03.640Z,5.53
2024-05-09T02:15:31.635Z,4.93
2024-05-09T02:17:59.384Z,3.33
2024-05-09T02:20:34.081Z,7.10
2024-05-09T02:23:05.108Z,4.13
2024-05-09T02:25:33.585Z,4.90
2024-05-09T02:28:01.359Z,5.82
2024-05-09T02:30:38.539Z,5.28
2024-05-09T02:33:10.484Z,4.78
2024-05-09T02:35:40.678Z,4.90
2024-05-09T02:38:09.742Z,4.50
2024-05-09T02:40:39.579Z,7.07
2024-05-09T02:43:10.072Z,4.20
2024-05-09T02:45:39.715Z,8.48
2024-05-09T02:48:08.252Z,5.60
2024-05-09T02:50:39.327Z,5.90
2024-05-09T02:53:09.222Z,4.50
2024-05-09T02:55:41.728Z,8.88
2024-05-09T02:58:10.120Z,5.47
2024-05-09T03:00:41.320Z,5.28
2024-05-09T03:03:13.216Z,4.38
2024-05-09T03:05:44.054Z,4.38
2024-05-09T03:08:12.128Z,7.72
2024-05-09T03:10:40.357Z,2.85
2024-05-09T03:13:14.162Z,4.00
2024-05-09T03:15:43.738Z,6.43
2024-05-09T03:18:11.984Z,5.90
2024-05-09T03:20:40.821Z,5.13
2024-05-09T03:23:09.951Z,7.63
2024-05-09T03:25:38.955Z,5.93
2024-05-09T03:28:06.918Z,5.05
2024-05-09T03:30:40.440Z,6.03
2024-05-09T03:33:12.524Z,8.05
2024-05-09T03:35:41.902Z,4.22
2024-05-09T03:38:09.848Z,3.90
2024-05-09T03:40:38.068Z,7.50
2024-05-09T03:43:05.780Z,5.38
2024-05-09T03:45:33.744Z,4.30
2024-05-09T03:48:01.471Z,9.43
2024-05-09T03:50:33.969Z,3.53
2024-05-09T03:53:03.597Z,3.45
2024-05-09T03:55:31.919Z,3.80
2024-05-09T03:57:59.780Z,4.00
2024-05-09T04:00:35.600Z,6.38
2024-05-09T04:03:08.725Z,7.20
2024-05-09T04:05:43.903Z,5.35
2024-05-09T04:08:12.252Z,6.80
2024-05-09T04:10:40.374Z,4.10
2024-05-09T04:13:08.046Z,6.72
2024-05-09T04:15:36.111Z,3.13
2024-05-09T04:18:04.026Z,7.95
2024-05-09T04:20:38.061Z,5.95
2024-05-09T04:23:09.545Z,3.97
2024-05-09T04:25:37.906Z,2.15
2024-05-09T04:28:05.882Z,5.10
2024-05-09T04:30:38.748Z,4.85
2024-05-09T04:33:11.878Z,4.25
2024-05-09T04:35:42.862Z,3.60
2024-05-09T04:38:11.241Z,5.38
2024-05-09T04:40:39.371Z,4.40
2024-05-09T04:43:07.665Z,4.57
2024-05-09T04:45:36.026Z,6.07
2024-05-09T04:48:04.016Z,6.35
2024-05-09T04:50:37.354Z,12.15
2024-05-09T04:53:08.236Z,12.65
2024-05-09T04:55:37.766Z,13.52
2024-05-09T04:58:05.850Z,14.18
2024-05-09T05:00:37.267Z,12.52
2024-05-09T05:03:13.064Z,7.47
2024-05-09T05:05:44.960Z,13.10
2024-05-09T05:08:17.729Z,10.43
2024-05-09T05:10:48.194Z,5.93
2024-05-09T05:13:18.390Z,5.68
2024-05-09T05:15:47.594Z,8.55
2024-05-09T05:18:15.645Z,5.13
2024-05-09T05:20:44.078Z,3.13
2024-05-09T05:23:13.829Z,3.97
2024-05-09T05:25:42.428Z,3.45
2024-05-09T05:28:10.090Z,2.53
2024-05-09T05:30:38.755Z,2.78
2024-05-09T05:33:07.389Z,7.75
2024-05-09T05:35:35.645Z,6.13
2024-05-09T05:38:03.855Z,5.70
2024-05-09T05:40:36.698Z,5.28
2024-05-09T05:43:10.183Z,5.13
2024-05-09T05:45:39.106Z,4.70
2024-05-09T05:48:08.138Z,4.75
2024-05-09T05:50:38.250Z,6.45
2024-05-09T05:53:08.267Z,4.22
2024-05-09T05:55:37.208Z,3.95
2024-05-09T05:58:04.934Z,5.05
2024-05-09T06:00:38.927Z,5.88
2024-05-09T06:03:12.801Z,4.57
2024-05-09T06:05:44.324Z,2.85
2024-05-09T06:08:12.767Z,7.93
2024-05-09T06:10:41.932Z,3.58
2024-05-09T06:13:14.147Z,4.40
2024-05-09T06:15:43.329Z,6.70
2024-05-09T06:18:12.503Z,4.95
2024-05-09T06:20:42.880Z,3.08
2024-05-09T06:23:11.587Z,4.75
2024-05-09T06:25:40.090Z,5.40
2024-05-09T06:28:07.693Z,5.28
2024-05-09T06:30:42.248Z,6.28
2024-05-09T06:33:13.136Z,5.60
2024-05-09T06:35:43.337Z,5.37
2024-05-09T06:38:11.606Z,5.32
2024-05-09T06:40:42.607Z,7.20
2024-05-09T06:43:16.784Z,4.65
2024-05-09T06:45:50.601Z,2.78
2024-05-09T06:48:19.729Z,2.17
2024-05-09T06:50:48.402Z,3.45
2024-05-09T06:53:16.921Z,7.80
2024-05-09T06:55:45.199Z,7.22
2024-05-09T06:58:12.884Z,4.85
2024-05-09T07:00:42.066Z,4.68
2024-05-09T07:03:12.030Z,4.05
2024-05-09T07:05:41.745Z,4.03
2024-05-09T07:08:09.457Z,2.70
2024-05-09T07:10:37.833Z,3.20
2024-05-09T07:13:09.444Z,2.40
2024-05-09T07:15:37.475Z,6.47
2024-05-09T07:18:12.144Z,1.10
2024-05-09T07:20:41.059Z,2.05
2024-05-09T07:23:12.586Z,3.10
2024-05-09T07:25:41.741Z,3.88
2024-05-09T07:28:16.459Z,2.13
2024-05-09T07:30:44.763Z,2.22
2024-05-09T07:33:23.484Z,4.47
2024-05-09T07:35:53.068Z,3.08
2024-05-09T07:38:21.099Z,2.38
2024-05-09T07:40:49.485Z,2.15
2024-05-09T07:43:17.184Z,2.47
2024-05-09T07:45:52.240Z,2.70
2024-05-09T07:52:37.822Z,3.88
2024-05-09T07:53:46.541Z,5.20
2024-05-09T07:56:19.126Z,5.18
2024-05-09T07:58:50.715Z,5.10
2024-05-09T08:01:19.149Z,9.13
2024-05-09T08:03:47.258Z,1.95
2024-05-09T08:06:15.540Z,8.02
2024-05-09T08:08:43.224Z,3.95
2024-05-09T08:11:11.294Z,3.10
2024-05-09T08:13:38.948Z,3.58
2024-05-09T08:16:07.342Z,4.43
2024-05-09T08:18:35.194Z,2.63
2024-05-09T08:21:03.397Z,6.55
2024-05-09T08:23:31.001Z,2.20
2024-05-09T08:25:59.080Z,3.55
2024-05-09T08:28:26.756Z,2.13
2024-05-09T08:30:54.929Z,3.72
2024-05-09T08:33:22.740Z,3.58
2024-05-09T08:35:50.922Z,2.63
2024-05-09T08:38:18.522Z,5.63
2024-05-09T08:40:46.734Z,2.55
2024-05-09T08:43:14.972Z,3.83
2024-05-09T08:45:44.733Z,3.58
2024-05-09T08:48:15.296Z,2.67
2024-05-09T08:50:45.605Z,5.30
2024-05-09T08:53:16.856Z,3.10
2024-05-09T08:55:46.383Z,3.90
2024-05-09T08:58:16.539Z,7.70
2024-05-09T09:00:46.019Z,2.42
2024-05-09T09:03:18.508Z,5.22
2024-05-09T09:06:10.218Z,2.75
2024-05-09T09:08:40.958Z,5.85
2024-05-09T09:11:09.099Z,7.95
2024-05-09T09:13:36.666Z,2.95
2024-05-09T09:16:05.111Z,12.88
2024-05-09T09:18:34.520Z,5.57
2024-05-09T09:21:03.444Z,4.63
2024-05-09T09:23:31.191Z,3.15
2024-05-09T09:26:00.174Z,9.45
2024-05-09T09:28:27.872Z,2.63
2024-05-09T09:31:02.096Z,7.95
2024-05-09T09:33:35.594Z,5.57
2024-05-09T09:36:05.842Z,4.35
2024-05-09T09:38:37.388Z,5.32
2024-05-09T09:41:07.821Z,4.80
2024-05-09T09:43:37.051Z,2.03
2024-05-09T09:46:08.681Z,5.80
2024-05-09T09:48:39.177Z,4.20
2024-05-09T09:51:08.916Z,8.55
2024-05-09T09:53:38.454Z,4.88
2024-05-09T09:56:08.335Z,4.63
2024-05-09T09:58:36.832Z,3.58
2024-05-09T10:01:05.069Z,7.32
2024-05-09T10:03:33.181Z,5.22
2024-05-09T10:06:01.790Z,3.22
2024-05-09T10:08:29.655Z,7.07
2024-05-09T10:10:57.834Z,7.35
2024-05-09T10:13:33.721Z,3.80
2024-05-09T10:16:09.043Z,2.30
2024-05-09T10:18:37.320Z,6.20
2024-05-09T10:21:16.379Z,3.17
2024-05-09T10:24:00.215Z,4.53
2024-05-09T10:26:35.499Z,6.28
2024-05-09T10:29:16.122Z,10.07
2024-05-09T10:31:45.106Z,3.05
2024-05-09T10:34:18.853Z,2.35
2024-05-09T10:36:47.240Z,2.58
2024-05-09T10:39:14.795Z,3.75
2024-05-09T10:41:42.833Z,7.03
2024-05-09T10:44:15.338Z,3.80
2024-05-09T10:46:44.268Z,3.97
2024-05-09T10:49:14.530Z,3.17
2024-05-09T10:51:45.225Z,4.75
2024-05-09T10:54:12.870Z,2.78
2024-05-09T10:56:42.187Z,3.72
2024-05-09T10:59:09.816Z,8.85
2024-05-09T11:01:37.934Z,3.65
2024-05-09T11:04:06.092Z,7.38
2024-05-09T11:06:36.227Z,3.53
2024-05-09T11:09:03.972Z,7.35
2024-05-09T11:11:32.125Z,3.45
2024-05-09T11:13:59.712Z,3.53
2024-05-09T11:16:27.757Z,3.88
2024-05-09T11:18:56.440Z,2.58
2024-05-09T11:21:25.215Z,3.45
2024-05-09T11:23:53.053Z,5.40
2024-05-09T11:26:25.580Z,5.95
2024-05-09T11:28:53.226Z,8.70
2024-05-09T11:31:21.510Z,5.70
2024-05-09T11:33:49.460Z,4.85
2024-05-09T11:36:17.558Z,7.43
2024-05-09T11:38:45.188Z,9.07
2024-05-09T11:41:19.230Z,4.15
2024-05-09T11:43:46.997Z,4.63
2024-05-09T11:46:15.317Z,7.20
2024-05-09T11:48:43.112Z,3.00
2024-05-09T11:51:11.299Z,5.30
2024-05-09T11:53:38.897Z,3.25
2024-05-09T11:56:07.032Z,3.20
2024-05-09T11:58:36.979Z,3.00
2024-05-09T12:01:05.196Z,2.53
2024-05-09T12:03:33.066Z,3.17
2024-05-09T12:06:01.440Z,3.65
2024-05-09T12:08:29.118Z,3.72
2024-05-09T12:10:57.453Z,5.55
2024-05-09T12:13:25.333Z,3.70
2024-05-09T12:15:54.740Z,4.28
2024-05-09T12:18:22.394Z,2.83
2024-05-09T12:20:50.483Z,5.57
2024-05-09T12:23:18.094Z,4.03
2024-05-09T12:25:46.098Z,4.70
2024-05-09T12:28:13.781Z,4.53
2024-05-09T12:30:42.146Z,4.03
2024-05-09T12:33:14.023Z,4.78
2024-05-09T12:35:45.386Z,9.18
2024-05-09T12:38:15.572Z,3.20
2024-05-09T12:40:43.903Z,4.43
2024-05-09T12:43:12.055Z,4.03
2024-05-09T12:45:40.765Z,3.30
2024-05-09T12:48:12.327Z,3.13
2024-05-09T12:50:41.760Z,5.18
2024-05-09T12:53:09.908Z,3.05
2024-05-09T12:55:45.028Z,2.90
2024-05-09T12:58:24.641Z,7.30
2024-05-09T13:00:53.144Z,2.63
2024-05-09T13:03:21.569Z,5.68
2024-05-09T13:05:50.644Z,6.82
2024-05-09T13:08:18.442Z,4.72
2024-05-09T13:10:46.648Z,7.82
2024-05-09T13:13:14.893Z,4.35
2024-05-09T13:15:43.120Z,3.85
2024-05-09T13:18:10.841Z,7.60
2024-05-09T13:20:38.930Z,5.63
2024-05-09T13:23:08.470Z,3.50
2024-05-09T13:25:38.211Z,3.20
2024-05-09T13:28:07.010Z,4.30
2024-05-09T13:30:40.359Z,5.97
2024-05-09T13:33:14.641Z,10.68
2024-05-09T13:35:47.363Z,5.97
2024-05-09T13:38:19.062Z,5.13
2024-05-09T13:40:48.209Z,3.53
2024-05-09T13:43:16.260Z,3.20
2024-05-09T13:45:44.658Z,4.05
2024-05-09T13:48:12.471Z,5.85
2024-05-09T13:50:41.049Z,3.45
2024-05-09T13:53:09.201Z,2.85
2024-05-09T13:55:40.650Z,5.47
2024-05-09T13:58:09.513Z,7.30
2024-05-09T14:00:46.434Z,4.60
2024-05-09T14:03:18.747Z,6.00
2024-05-09T14:05:49.776Z,4.10
2024-05-09T14:08:19.793Z,6.50
2024-05-09T14:10:48.630Z,4.97
2024-05-09T14:13:16.669Z,6.00
2024-05-09T14:15:44.863Z,2.80
2024-05-09T14:18:14.089Z,4.57
2024-05-09T14:20:43.131Z,3.80
2024-05-09T14:23:11.236Z,3.88
2024-05-09T14:25:42.589Z,5.43
2024-05-09T14:28:12.694Z,4.00
2024-05-09T14:30:41.907Z,11.95
2024-05-09T14:33:10.184Z,7.95
2024-05-09T14:35:39.251Z,11.55
2024-05-09T14:38:07.728Z,9.27
2024-05-09T14:40:41.972Z,6.20
2024-05-09T14:43:15.436Z,7.20
2024-05-09T14:45:44.444Z,5.13
2024-05-09T14:48:12.696Z,5.22
2024-05-09T14:50:41.400Z,7.47
2024-05-09T14:53:10.573Z,8.65
2024-05-09T14:55:40.308Z,9.35
2024-05-09T14:58:10.109Z,9.50
2024-05-09T15:00:42.452Z,4.85
2024-05-09T15:03:13.489Z,5.65
2024-05-09T15:05:41.748Z,9.10
2024-05-09T15:08:09.555Z,10.52
2024-05-09T15:10:38.814Z,11.82
2024-05-09T15:13:08.732Z,4.47
2024-05-09T15:15:38.026Z,9.40
2024-05-09T15:18:06.399Z,5.78
2024-05-09T15:20:37.031Z,8.35
2024-05-09T15:23:06.970Z,4.72
2024-05-09T15:25:36.553Z,7.68
2024-05-09T15:28:05.120Z,6.00
2024-05-09T15:30:34.519Z,8.95
2024-05-09T15:33:04.083Z,6.50
2024-05-09T15:35:32.732Z,5.43
2024-05-09T15:38:02.779Z,5.60
2024-05-09T15:40:38.099Z,6.20
2024-05-09T15:43:10.048Z,4.13
2024-05-09T15:45:40.624Z,8.75
2024-05-09T15:48:09.888Z,3.53
2024-05-09T15:50:41.551Z,12.25
2024-05-09T15:53:11.925Z,5.70
2024-05-09T15:55:41.479Z,9.95
2024-05-09T15:58:09.751Z,8.35
2024-05-09T16:00:41.527Z,9.15
2024-05-09T16:05:41.178Z,5.78
2024-05-09T16:08:09.516Z,5.30
2024-05-09T16:10:44.357Z,5.35
2024-05-09T16:13:13.397Z,4.55
2024-05-09T16:15:41.682Z,11.93
2024-05-09T16:18:09.583Z,9.90
2024-05-09T16:20:40.817Z,10.32
2024-05-09T16:23:10.580Z,20.10
2024-05-09T16:25:39.848Z,8.25
2024-05-09T16:28:10.417Z,5.13
2024-05-09T16:30:39.922Z,14.60
2024-05-09T16:33:08.591Z,11.80
2024-05-09T16:35:37.936Z,11.05
2024-05-09T16:38:06.156Z,7.38
2024-05-09T16:40:38.814Z,11.25
2024-05-09T16:43:12.310Z,11.15
2024-05-09T16:45:41.865Z,5.65
2024-05-09T16:48:09.733Z,4.55
2024-05-09T16:50:38.027Z,3.25
2024-05-09T16:53:06.737Z,4.68
2024-05-09T16:55:36.147Z,5.32
2024-05-09T16:58:04.949Z,6.20
2024-05-09T17:00:40.489Z,4.78
2024-05-09T17:03:11.924Z,5.00
2024-05-09T17:05:41.091Z,8.32
2024-05-09T17:08:09.385Z,4.13
2024-05-09T17:10:37.620Z,6.28
2024-05-09T17:13:07.455Z,5.10
2024-05-09T17:15:37.453Z,12.77
2024-05-09T17:18:07.535Z,8.88
2024-05-09T17:20:37.490Z,8.63
2024-05-09T17:23:14.914Z,11.98
2024-05-09T17:25:43.793Z,17.63
2024-05-09T17:28:12.031Z,5.22
2024-05-09T17:30:42.162Z,5.07
2024-05-09T17:33:11.862Z,5.72
2024-05-09T17:35:40.941Z,4.90
2024-05-09T17:38:08.947Z,4.30
2024-05-09T17:40:38.516Z,10.93
2024-05-09T17:43:09.005Z,5.68
2024-05-09T17:45:39.507Z,6.78
2024-05-09T17:48:09.559Z,9.27
2024-05-09T17:50:38.541Z,9.25
2024-05-09T17:53:07.114Z,7.07
2024-05-09T17:55:36.137Z,9.38
2024-05-09T17:58:04.887Z,10.60
2024-05-09T18:00:39.161Z,12.73
2024-05-09T18:03:13.839Z,15.05
2024-05-09T18:05:44.875Z,17.83
2024-05-09T18:08:13.706Z,34.15
2024-05-09T18:10:42.335Z,46.47
2024-05-09T18:13:11.081Z,27.63
2024-05-09T18:15:39.927Z,25.55
2024-05-09T18:18:09.170Z,33.00
2024-05-09T18:20:43.761Z,32.95
2024-05-09T18:23:14.880Z,21.50
2024-05-09T18:25:44.211Z,15.18
2024-05-09T18:28:11.868Z,13.90
2024-05-09T18:30:41.173Z,12.45
2024-05-09T18:33:11.226Z,9.18
2024-05-09T18:35:39.998Z,14.45
2024-05-09T18:38:07.666Z,9.50
2024-05-09T18:40:38.067Z,18.50
2024-05-09T18:43:08.483Z,10.00
2024-05-09T18:45:38.456Z,10.60
2024-05-09T18:48:07.522Z,13.07
2024-05-09T18:50:39.267Z,16.50
2024-05-09T18:53:10.400Z,14.43
2024-05-09T18:55:39.720Z,34.60
2024-05-09T18:58:07.551Z,31.40
2024-05-09T19:00:38.746Z,45.35
2024-05-09T19:03:11.553Z,32.63
2024-05-09T19:05:43.554Z,94.35
2024-05-09T19:08:12.548Z,34.88
2024-05-09T19:10:40.801Z,21.20
2024-05-09T19:13:12.216Z,16.10
2024-05-09T19:15:43.123Z,22.10
2024-05-09T19:18:12.770Z,13.75
2024-05-09T19:20:41.407Z,13.13
2024-05-09T19:23:09.680Z,10.57
2024-05-09T19:25:37.708Z,17.83
2024-05-09T19:28:05.847Z,14.32
2024-05-09T19:30:39.686Z,10.93
2024-05-09T19:33:11.009Z,13.45
2024-05-09T19:35:40.255Z,24.50
2024-05-09T19:38:07.874Z,13.10
2024-05-09T19:40:36.305Z,14.48
2024-05-09T19:43:05.546Z,18.83
2024-05-09T19:45:35.756Z,14.77
2024-05-09T19:48:05.136Z,15.90
2024-05-09T19:50:41.460Z,20.27
2024-05-09T19:53:12.499Z,12.52
2024-05-09T19:55:41.126Z,11.25
2024-05-09T19:58:09.371Z,12.88
2024-05-09T20:00:40.527Z,13.63
2024-05-09T20:03:10.843Z,10.48
2024-05-09T20:05:39.643Z,9.93
2024-05-09T20:08:07.723Z,14.68
2024-05-09T20:10:36.742Z,10.30
2024-05-09T20:13:06.646Z,10.85
2024-05-09T20:15:37.074Z,12.93
2024-05-09T20:18:05.759Z,11.77
2024-05-09T20:20:39.300Z,13.82
2024-05-09T20:23:10.544Z,11.18
2024-05-09T20:25:38.716Z,13.38
2024-05-09T20:28:06.923Z,8.77
2024-05-09T20:30:36.136Z,12.88
2024-05-09T20:33:05.930Z,10.95
2024-05-09T20:35:35.333Z,13.45
2024-05-09T20:38:03.942Z,9.50
2024-05-09T20:40:36.406Z,8.77
2024-05-09T20:43:07.501Z,12.05
2024-05-09T20:45:36.201Z,8.88
2024-05-09T20:48:04.242Z,7.68
2024-05-09T20:50:38.679Z,8.35
2024-05-09T20:53:13.839Z,10.20
2024-05-09T20:55:43.854Z,8.48
2024-05-09T20:58:12.583Z,10.25
2024-05-09T21:00:44.206Z,8.98
2024-05-09T21:03:15.266Z,11.90
2024-05-09T21:05:44.998Z,8.85
2024-05-09T21:08:12.853Z,9.43
2024-05-09T21:10:40.895Z,12.18
2024-05-09T21:13:08.609Z,10.85
2024-05-09T21:15:36.918Z,7.18
2024-05-09T21:18:05.296Z,7.45
2024-05-09T21:20:34.965Z,12.07
2024-05-09T21:23:03.447Z,8.50
2024-05-09T21:25:32.202Z,11.88
2024-05-09T21:28:00.483Z,7.85
2024-05-09T21:30:38.388Z,6.22
2024-05-09T21:33:11.760Z,6.20
2024-05-09T21:35:41.575Z,6.63
2024-05-09T21:38:09.270Z,8.10
2024-05-09T21:40:38.300Z,7.68
2024-05-09T21:43:07.615Z,7.25
2024-05-09T21:45:36.595Z,6.45
2024-05-09T21:48:05.452Z,6.32
2024-05-09T21:50:39.818Z,7.18
2024-05-09T21:53:10.036Z,7.05
2024-05-09T21:55:38.151Z,9.50
2024-05-09T21:58:06.025Z,8.10
2024-05-09T22:00:38.244Z,9.60
2024-05-09T22:03:08.799Z,6.47
2024-05-09T22:05:38.127Z,8.07
2024-05-09T22:08:06.325Z,9.63
2024-05-09T22:10:36.310Z,11.55
2024-05-09T22:13:05.940Z,13.10
2024-05-09T22:15:39.661Z,8.05
2024-05-09T22:18:09.295Z,6.88
2024-05-09T22:20:44.677Z,7.32
2024-05-09T22:23:15.930Z,5.70
2024-05-09T22:25:44.346Z,10.10
2024-05-09T22:28:13.526Z,7.18
2024-05-09T22:30:41.689Z,6.30
2024-05-09T22:33:11.032Z,8.80
2024-05-09T22:35:41.096Z,8.43
2024-05-09T22:38:09.096Z,8.77
2024-05-09T22:40:46.126Z,14.32
2024-05-09T22:43:24.819Z,7.72
2024-05-09T22:45:56.853Z,5.55
2024-05-09T22:48:25.587Z,6.55
2024-05-09T22:50:54.283Z,6.35
2024-05-09T22:53:25.535Z,9.05
2024-05-09T22:55:54.411Z,9.55
2024-05-09T22:58:22.514Z,8.88
2024-05-09T23:00:50.942Z,10.05
2024-05-09T23:03:21.511Z,7.68
2024-05-09T23:05:50.026Z,6.97
2024-05-09T23:08:17.632Z,8.65
2024-05-09T23:10:45.736Z,7.38
2024-05-09T23:13:13.437Z,8.82
2024-05-09T23:15:41.622Z,9.30
2024-05-09T23:18:09.556Z,7.40
2024-05-09T23:20:39.775Z,8.43
2024-05-09T23:23:08.751Z,19.55
2024-05-09T23:25:37.529Z,8.95
2024-05-09T23:28:05.601Z,6.28
2024-05-09T23:30:38.331Z,11.30
2024-05-09T23:33:08.892Z,9.35
2024-05-09T23:35:37.013Z,9.73
2024-05-09T23:38:04.730Z,9.05
2024-05-09T23:43:03.740Z,8.45
2024-05-09T23:45:31.870Z,5.95
2024-05-09T23:47:59.981Z,13.02
2024-05-09T23:50:34.449Z,5.97
2024-05-09T23:53:06.098Z,8.43
2024-05-09T23:55:34.996Z,9.50
2024-05-09T23:58:02.709Z,5.85
